createdAt,value
2018-06-08T00:01:55.728Z,77.50
2018-06-08T00:04:28.341Z,72.15
2018-06-08T00:07:01.044Z,78.35
2018-06-08T00:09:34.934Z,75.67
2018-06-08T00:12:07.963Z,75.67
2018-06-08T00:14:40.604Z,73.67
2018-06-08T00:17:14.921Z,64.50
2018-06-08T00:19:48.221Z,73.25
2018-06-08T00:22:27.320Z,73.33
2018-06-08T00:25:00.569Z,75.73
2018-06-08T00:27:33.051Z,70.50
2018-06-08T00:30:11.056Z,72.03
2018-06-08T00:32:45.769Z,64.77
2018-06-08T00:35:24.627Z,58.40
2018-06-08T00:37:58.073Z,65.97
2018-06-08T00:40:31.481Z,65.70
2018-06-08T00:43:06.699Z,58.87
2018-06-08T00:45:42.072Z,53.47
2018-06-08T00:48:14.847Z,71.37
2018-06-08T00:50:47.969Z,71.35
2018-06-08T00:53:20.540Z,64.53
2018-06-08T00:55:53.968Z,71.27
2018-06-08T00:58:27.992Z,70.67
2018-06-08T01:03:33.695Z,74.70
2018-06-08T01:06:08.223Z,64.23
2018-06-08T01:08:40.975Z,70.50
2018-06-08T01:11:14.008Z,60.40
2018-06-08T01:13:46.973Z,75.30
2018-06-08T01:16:20.534Z,79.07
2018-06-08T01:18:54.056Z,95.93
2018-06-08T01:21:27.129Z,95.27
2018-06-08T01:23:59.699Z,73.47
2018-06-08T01:26:32.261Z,79.27
2018-06-08T01:29:05.561Z,76.37
2018-06-08T01:31:38.492Z,76.07
2018-06-08T01:34:11.598Z,107.43
2018-06-08T01:36:44.444Z,110.13
2018-06-08T01:39:17.328Z,85.40
2018-06-08T01:41:52.773Z,85.97
2018-06-08T01:44:25.868Z,80.03
2018-06-08T01:46:59.544Z,85.10
2018-06-08T01:49:31.964Z,82.40
2018-06-08T01:52:04.791Z,75.20
2018-06-08T01:54:37.403Z,85.13
2018-06-08T01:57:10.113Z,82.30
2018-06-08T01:59:43.043Z,79.33
2018-06-08T02:02:15.900Z,69.77
2018-06-08T02:04:49.765Z,89.60
2018-06-08T02:07:23.358Z,82.00
2018-06-08T02:09:55.978Z,101.57
2018-06-08T02:12:28.568Z,96.40
2018-06-08T02:15:04.609Z,71.67
2018-06-08T02:17:37.424Z,93.03
2018-06-08T02:20:09.999Z,82.07
2018-06-08T02:22:42.877Z,73.57
2018-06-08T02:25:15.569Z,77.60
2018-06-08T02:27:48.236Z,87.77
2018-06-08T02:30:22.047Z,84.90
2018-06-08T02:32:54.714Z,65.35
2018-06-08T02:35:27.477Z,54.80
2018-06-08T02:38:00.942Z,77.37
2018-06-08T02:40:34.733Z,63.50
2018-06-08T02:43:08.054Z,79.03
2018-06-08T02:45:40.769Z,94.85
2018-06-08T02:48:14.413Z,90.70
2018-06-08T02:50:47.030Z,82.90
2018-06-08T02:53:21.105Z,73.30
2018-06-08T02:55:53.586Z,76.87
2018-06-08T02:58:26.414Z,89.47
2018-06-08T03:00:59.193Z,93.80
2018-06-08T03:03:31.889Z,96.77
2018-06-08T03:06:04.350Z,92.33
2018-06-08T03:08:37.145Z,87.53
2018-06-08T03:11:09.673Z,125.40
2018-06-08T03:13:43.691Z,94.53
2018-06-08T03:16:17.222Z,89.33
2018-06-08T03:18:50.329Z,84.67
2018-06-08T03:21:23.384Z,71.87
2018-06-08T03:23:56.303Z,85.70
2018-06-08T03:26:29.572Z,98.60
2018-06-08T03:29:05.909Z,100.00
2018-06-08T03:31:38.492Z,86.40
2018-06-08T03:34:11.102Z,97.13
2018-06-08T03:36:43.640Z,79.57
2018-06-08T03:39:17.216Z,85.77
2018-06-08T03:41:50.012Z,90.93
2018-06-08T03:44:25.696Z,69.87
2018-06-08T03:46:59.830Z,96.30
2018-06-08T03:49:33.408Z,114.40
2018-06-08T03:52:06.057Z,89.63
2018-06-08T03:54:39.109Z,104.10
2018-06-08T03:57:11.660Z,105.30
2018-06-08T03:59:45.297Z,83.97
2018-06-08T04:02:18.188Z,98.83
2018-06-08T04:04:53.447Z,78.53
2018-06-08T04:07:27.554Z,100.47
2018-06-08T04:10:01.603Z,101.57
2018-06-08T04:12:34.761Z,93.07
2018-06-08T04:15:07.323Z,90.17
2018-06-08T04:17:40.220Z,105.97
2018-06-08T04:20:12.628Z,99.47
2018-06-08T04:22:45.424Z,95.50
2018-06-08T04:25:18.515Z,94.47
2018-06-08T04:27:51.541Z,81.40
2018-06-08T04:30:24.874Z,109.50
2018-06-08T04:32:58.477Z,93.43
2018-06-08T04:35:32.328Z,95.87
2018-06-08T04:38:06.813Z,79.55
2018-06-08T04:40:39.381Z,73.10
2018-06-08T04:43:12.290Z,85.57
2018-06-08T04:45:45.397Z,80.23
2018-06-08T04:48:18.013Z,107.82
2018-06-08T04:50:50.476Z,80.80
2018-06-08T04:53:24.500Z,81.77
2018-06-08T04:55:57.127Z,74.80
2018-06-08T04:58:30.396Z,75.10
2018-06-08T05:01:03.301Z,83.37
2018-06-08T05:03:37.086Z,69.97
2018-06-08T05:06:09.606Z,93.43
2018-06-08T05:08:42.496Z,85.47
2018-06-08T05:11:14.982Z,86.70
2018-06-08T05:13:49.711Z,99.23
2018-06-08T05:16:23.368Z,95.63
2018-06-08T05:18:57.260Z,87.30
2018-06-08T05:21:30.430Z,79.03
2018-06-08T05:24:03.696Z,82.73
2018-06-08T05:26:37.456Z,88.82
2018-06-08T05:29:10.515Z,90.10
2018-06-08T05:31:43.198Z,91.73
2018-06-08T05:34:16.731Z,87.33
2018-06-08T05:36:49.795Z,90.10
2018-06-08T05:41:48.090Z,85.45
2018-06-08T05:44:21.898Z,71.17
2018-06-08T05:46:55.247Z,64.00
2018-06-08T05:49:28.563Z,68.87
2018-06-08T05:52:01.223Z,65.27
2018-06-08T05:54:34.266Z,64.47
2018-06-08T05:57:06.824Z,68.50
2018-06-08T05:59:39.747Z,58.90
2018-06-08T06:02:15.599Z,59.83
2018-06-08T06:04:49.356Z,64.07
2018-06-08T06:07:22.252Z,58.00
2018-06-08T06:09:55.356Z,61.13
2018-06-08T06:12:29.587Z,55.93
2018-06-08T06:15:06.750Z,48.47
2018-06-08T06:17:42.438Z,47.00
2018-06-08T06:20:17.789Z,44.17
2018-06-08T06:22:53.320Z,46.73
2018-06-08T06:25:26.928Z,45.80
2018-06-08T06:27:59.400Z,39.17
2018-06-08T06:30:32.196Z,35.83
2018-06-08T06:33:05.787Z,35.70
2018-06-08T06:35:39.454Z,34.23
2018-06-08T06:38:12.297Z,30.73
2018-06-08T06:40:45.279Z,31.43
2018-06-08T06:43:17.719Z,30.37
2018-06-08T06:45:50.065Z,32.97
2018-06-08T06:48:23.739Z,28.37
2018-06-08T06:50:56.133Z,26.03
2018-06-08T06:53:28.466Z,24.13
2018-06-08T06:56:01.974Z,25.20
2018-06-08T06:58:34.964Z,27.40
2018-06-08T07:01:08.013Z,26.40
2018-06-08T07:03:43.284Z,26.98
2018-06-08T07:06:15.848Z,23.87
2018-06-08T07:08:48.416Z,24.60
2018-06-08T07:11:21.208Z,23.87
2018-06-08T07:13:57.289Z,25.07
2018-06-08T07:16:29.948Z,25.33
2018-06-08T07:19:02.871Z,25.30
2018-06-08T07:21:37.350Z,24.53
2018-06-08T07:24:11.450Z,27.00
2018-06-08T07:26:47.764Z,28.63
2018-06-08T07:29:39.809Z,26.60
2018-06-08T07:32:13.148Z,27.07
2018-06-08T07:34:48.212Z,25.27
2018-06-08T07:37:21.099Z,29.47
2018-06-08T07:39:56.375Z,24.60
2018-06-08T07:42:29.061Z,24.87
2018-06-08T07:45:04.071Z,26.10
2018-06-08T07:47:37.089Z,29.12
2018-06-08T07:50:09.685Z,28.27
2018-06-08T07:52:44.314Z,27.45
2018-06-08T07:55:17.057Z,29.77
2018-06-08T07:57:52.534Z,25.43
2018-06-08T08:00:26.538Z,30.00
2018-06-08T08:03:00.197Z,29.47
2018-06-08T08:05:32.911Z,30.77
2018-06-08T08:08:07.195Z,30.47
2018-06-08T08:10:39.818Z,31.43
2018-06-08T08:13:13.417Z,34.50
2018-06-08T08:15:49.363Z,33.60
2018-06-08T08:18:22.860Z,31.80
2018-06-08T08:20:55.421Z,32.70
2018-06-08T08:23:33.320Z,32.57
2018-06-08T08:26:08.260Z,32.53
2018-06-08T08:28:46.096Z,33.30
2018-06-08T08:31:18.777Z,36.13
2018-06-08T08:33:52.771Z,38.58
2018-06-08T08:36:29.414Z,33.10
2018-06-08T08:39:05.213Z,33.37
2018-06-08T08:41:39.087Z,32.70
2018-06-08T08:44:12.597Z,32.27
2018-06-08T08:46:47.932Z,32.37
2018-06-08T08:49:24.248Z,33.50
2018-06-08T08:51:58.086Z,29.90
2018-06-08T08:54:32.332Z,31.83
2018-06-08T08:57:06.212Z,28.00
2018-06-08T08:59:43.875Z,28.47
2018-06-08T09:02:17.598Z,31.57
2018-06-08T09:04:52.479Z,30.53
2018-06-08T09:07:26.767Z,32.45
2018-06-08T09:10:00.837Z,32.43
2018-06-08T09:12:33.992Z,29.87
2018-06-08T09:15:06.738Z,34.47
2018-06-08T09:17:39.822Z,31.17
2018-06-08T09:20:14.515Z,33.75
2018-06-08T09:22:51.025Z,33.27
2018-06-08T09:25:24.776Z,34.83
2018-06-08T09:27:58.001Z,34.57
2018-06-08T09:30:30.534Z,37.50
2018-06-08T09:33:03.418Z,32.63
2018-06-08T09:35:37.835Z,34.97
2018-06-08T09:38:11.686Z,34.33
2018-06-08T09:40:49.288Z,36.27
2018-06-08T09:43:24.728Z,46.10
2018-06-08T09:45:59.812Z,49.93
2018-06-08T09:48:33.110Z,51.08
2018-06-08T09:51:06.711Z,53.63
2018-06-08T09:53:47.236Z,55.63
2018-06-08T09:56:25.926Z,49.97
2018-06-08T09:59:07.106Z,48.70
2018-06-08T10:01:48.269Z,46.93
2018-06-08T10:04:30.311Z,62.60
2018-06-08T10:07:04.973Z,60.70
2018-06-08T10:09:37.492Z,62.67
2018-06-08T10:12:11.788Z,56.00
2018-06-08T10:14:48.157Z,56.57
2018-06-08T10:17:21.697Z,49.33
2018-06-08T10:19:58.116Z,51.13
2018-06-08T10:22:31.360Z,50.33
2018-06-08T10:25:06.197Z,45.53
2018-06-08T10:27:39.241Z,53.37
2018-06-08T10:30:13.664Z,67.23
2018-06-08T10:32:47.712Z,57.13
2018-06-08T10:35:20.603Z,51.53
2018-06-08T10:37:56.454Z,59.60
2018-06-08T10:40:31.016Z,55.53
2018-06-08T10:43:06.255Z,52.87
2018-06-08T10:45:39.881Z,53.73
2018-06-08T10:48:30.568Z,46.27
2018-06-08T10:51:04.643Z,45.83
2018-06-08T10:53:39.324Z,42.20
2018-06-08T10:56:13.597Z,40.93
2018-06-08T10:58:48.031Z,36.43
2018-06-08T11:01:22.171Z,36.07
2018-06-08T11:03:58.137Z,38.83
2018-06-08T11:06:42.725Z,33.30
2018-06-08T11:09:16.275Z,43.40
2018-06-08T11:11:49.100Z,31.13
2018-06-08T11:14:23.581Z,33.77
2018-06-08T11:17:00.827Z,38.35
2018-06-08T11:19:35.840Z,38.63
2018-06-08T11:22:10.257Z,33.80
2018-06-08T11:24:44.703Z,34.87
2018-06-08T11:27:18.602Z,34.20
2018-06-08T11:29:59.197Z,29.33
2018-06-08T11:32:33.707Z,32.13
2018-06-08T11:35:07.156Z,33.87
2018-06-08T11:37:43.810Z,31.27
2018-06-08T11:40:19.428Z,26.43
2018-06-08T11:42:59.968Z,25.90
2018-06-08T11:45:36.082Z,24.70
2018-06-08T11:48:09.803Z,23.27
2018-06-08T11:50:45.224Z,22.60
2018-06-08T11:53:18.701Z,30.35
2018-06-08T11:55:58.028Z,27.30
2018-06-08T11:58:32.531Z,26.23
2018-06-08T12:01:07.443Z,29.17
2018-06-08T12:03:40.012Z,30.53
2018-06-08T12:06:26.387Z,32.90
2018-06-08T12:09:08.845Z,34.60
2018-06-08T12:11:43.590Z,38.03
2018-06-08T12:14:17.183Z,37.60
2018-06-08T12:16:49.723Z,32.13
2018-06-08T12:19:22.765Z,37.42
2018-06-08T12:21:56.846Z,34.60
2018-06-08T12:24:29.613Z,35.80
2018-06-08T12:27:06.900Z,36.93
2018-06-08T12:29:43.957Z,34.73
2018-06-08T12:32:27.716Z,38.72
2018-06-08T12:35:06.867Z,31.37
2018-06-08T12:37:45.107Z,32.03
2018-06-08T12:40:18.445Z,28.87
2018-06-08T12:42:53.291Z,29.07
2018-06-08T12:45:30.572Z,31.03
2018-06-08T12:48:06.544Z,28.17
2018-06-08T12:50:41.288Z,27.87
2018-06-08T12:53:14.713Z,28.93
2018-06-08T12:55:48.723Z,30.45
2018-06-08T12:58:22.558Z,28.67
2018-06-08T13:00:59.199Z,26.97
2018-06-08T13:03:35.192Z,27.10
2018-06-08T13:06:09.021Z,23.90
2018-06-08T13:08:42.956Z,24.27
2018-06-08T13:11:23.671Z,25.83
2018-06-08T13:13:57.909Z,29.63
2018-06-08T13:16:32.385Z,26.40
2018-06-08T13:19:05.823Z,27.10
2018-06-08T13:21:40.809Z,26.00
2018-06-08T13:24:18.949Z,28.57
2018-06-08T13:26:54.366Z,29.53
2018-06-08T13:29:29.018Z,32.35
2018-06-08T13:32:02.841Z,30.10
2018-06-08T13:34:38.948Z,28.50
2018-06-08T13:37:21.250Z,28.17
2018-06-08T13:39:56.623Z,26.77
2018-06-08T13:42:39.354Z,26.20
2018-06-08T13:45:18.504Z,30.03
2018-06-08T13:47:54.773Z,28.93
2018-06-08T13:50:29.309Z,30.23
2018-06-08T13:53:08.031Z,34.70
2018-06-08T13:55:42.942Z,32.17
2018-06-08T13:58:21.704Z,32.30
2018-06-08T14:00:55.592Z,32.70
2018-06-08T14:03:32.772Z,34.70
2018-06-08T14:06:14.410Z,32.03
2018-06-08T14:08:50.502Z,31.77
2018-06-08T14:11:29.864Z,30.13
2018-06-08T14:14:06.580Z,31.75
2018-06-08T14:16:42.686Z,31.90
2018-06-08T14:19:22.004Z,29.63
2018-06-08T14:21:54.998Z,30.20
2018-06-08T14:24:31.356Z,32.20
2018-06-08T14:27:05.901Z,34.17
2018-06-08T14:29:48.552Z,30.33
2018-06-08T14:32:26.959Z,30.10
2018-06-08T14:35:01.039Z,27.87
2018-06-08T14:37:35.836Z,32.05
2018-06-08T14:40:09.219Z,28.93
2018-06-08T14:42:42.765Z,25.97
2018-06-08T14:45:27.628Z,27.33
2018-06-08T14:48:03.275Z,26.17
2018-06-08T14:50:37.701Z,27.27
2018-06-08T14:53:28.199Z,27.10
2018-06-08T14:56:06.472Z,30.50
2018-06-08T14:58:49.391Z,33.60
2018-06-08T15:01:26.824Z,29.57
2018-06-08T15:04:10.163Z,31.70
2018-06-08T15:06:44.417Z,31.90
2018-06-08T15:09:29.772Z,27.10
2018-06-08T15:12:04.687Z,37.27
2018-06-08T15:14:37.808Z,27.67
2018-06-08T15:17:11.225Z,33.53
2018-06-08T15:19:46.546Z,33.63
2018-06-08T15:22:26.957Z,35.83
2018-06-08T15:25:02.079Z,40.83
2018-06-08T15:27:40.018Z,37.53
2018-06-08T15:30:14.708Z,41.47
2018-06-08T15:32:47.465Z,41.10
2018-06-08T15:35:25.373Z,45.20
2018-06-08T15:37:59.173Z,43.27
2018-06-08T15:40:41.954Z,43.30
2018-06-08T15:43:16.025Z,42.50
2018-06-08T15:45:50.757Z,43.25
2018-06-08T15:48:32.108Z,42.97
2018-06-08T15:51:07.488Z,41.70
2018-06-08T15:53:40.615Z,44.03
2018-06-08T15:56:15.054Z,45.80
2018-06-08T15:58:49.611Z,48.37
2018-06-08T16:01:22.406Z,42.43
2018-06-08T16:03:58.848Z,47.57
2018-06-08T16:06:39.074Z,46.53
2018-06-08T16:09:12.323Z,50.63
2018-06-08T16:11:45.289Z,50.30
2018-06-08T16:14:19.447Z,49.37
2018-06-08T16:16:53.772Z,47.70
2018-06-08T16:19:37.196Z,46.37
2018-06-08T16:22:11.283Z,49.30
2018-06-08T16:24:46.092Z,46.63
2018-06-08T16:27:21.388Z,38.57
2018-06-08T16:29:57.148Z,45.10
2018-06-08T16:32:37.653Z,47.17
2018-06-08T16:35:11.344Z,42.27
2018-06-08T16:37:47.019Z,43.77
2018-06-08T16:40:29.981Z,46.65
2018-06-08T16:43:04.232Z,43.67
2018-06-08T16:45:38.683Z,41.80
2018-06-08T16:48:12.256Z,38.70
2018-06-08T16:50:47.283Z,40.93
2018-06-08T16:53:27.627Z,38.60
2018-06-08T16:56:02.220Z,41.33
2018-06-08T16:58:38.619Z,40.80
2018-06-08T17:01:11.105Z,38.07
2018-06-08T17:03:44.709Z,37.77
2018-06-08T17:06:19.652Z,34.97
2018-06-08T17:08:52.132Z,38.63
2018-06-08T17:11:34.654Z,36.63
2018-06-08T17:14:08.502Z,36.00
2018-06-08T17:16:48.401Z,36.50
2018-06-08T17:19:22.553Z,38.53
2018-06-08T17:22:01.961Z,38.87
2018-06-08T17:24:39.883Z,37.57
2018-06-08T17:27:20.256Z,34.33
2018-06-08T17:29:57.316Z,35.30
2018-06-08T17:32:42.084Z,36.03
2018-06-08T17:35:17.226Z,36.97
2018-06-08T17:37:52.395Z,35.83
2018-06-08T17:40:39.757Z,37.70
2018-06-08T17:43:25.150Z,37.73
2018-06-08T17:46:04.772Z,41.03
2018-06-08T17:48:43.957Z,42.47
2018-06-08T17:51:21.676Z,39.30
2018-06-08T17:54:00.931Z,39.03
2018-06-08T17:56:35.984Z,36.13
2018-06-08T17:59:14.028Z,36.10
2018-06-08T18:01:51.957Z,37.78
2018-06-08T18:04:29.787Z,31.47
2018-06-08T18:07:08.487Z,30.60
2018-06-08T18:09:44.096Z,29.60
2018-06-08T18:12:17.345Z,29.47
2018-06-08T18:14:52.789Z,33.00
2018-06-08T18:17:26.907Z,32.70
2018-06-08T18:20:07.548Z,36.20
2018-06-08T18:22:44.667Z,40.38
2018-06-08T18:25:21.832Z,42.43
2018-06-08T18:28:04.060Z,39.60
2018-06-08T18:30:38.791Z,43.87
2018-06-08T18:33:14.767Z,46.15
2018-06-08T18:36:10.517Z,38.87
2018-06-08T18:38:45.866Z,40.30
2018-06-08T18:41:21.032Z,37.17
2018-06-08T18:43:59.839Z,39.57
2018-06-08T18:46:36.061Z,37.17
2018-06-08T18:49:17.945Z,38.10
2018-06-08T18:51:59.842Z,36.23
2018-06-08T18:55:00.318Z,38.33
2018-06-08T18:57:35.468Z,33.20
2018-06-08T19:00:08.132Z,34.70
2018-06-08T19:02:42.420Z,36.70
2018-06-08T19:05:17.109Z,33.83
2018-06-08T19:07:59.884Z,38.03
2018-06-08T19:10:39.751Z,40.78
2018-06-08T19:23:15.248Z,43.00
2018-06-08T19:25:54.135Z,44.60
2018-06-08T19:28:28.725Z,46.28
2018-06-08T19:31:02.552Z,37.67
2018-06-08T19:33:36.578Z,44.60
2018-06-08T19:36:09.285Z,52.28
2018-06-08T19:38:43.600Z,47.00
2018-06-08T19:41:20.842Z,51.20
2018-06-08T19:44:05.965Z,52.47
2018-06-08T19:46:42.174Z,54.40
2018-06-08T19:49:17.870Z,49.30
2018-06-08T19:51:55.415Z,50.57
2018-06-08T19:54:29.325Z,55.53
2018-06-08T19:57:08.768Z,53.60
2018-06-08T19:59:48.073Z,61.90
2018-06-08T20:02:24.998Z,58.47
2018-06-08T20:05:03.829Z,57.63
2018-06-08T20:07:44.429Z,57.23
2018-06-08T20:10:19.319Z,57.33
2018-06-08T20:12:52.765Z,73.18
2018-06-08T20:15:27.997Z,50.40
2018-06-08T20:18:27.046Z,61.77
2018-06-08T20:21:06.281Z,55.30
2018-06-08T20:23:41.249Z,58.33
2018-06-08T20:26:17.424Z,59.03
2018-06-08T20:28:52.110Z,62.83
2018-06-08T20:31:27.457Z,66.60
2018-06-08T20:34:10.421Z,64.23
2018-06-08T20:36:45.469Z,70.22
2018-06-08T20:39:23.112Z,64.03
2018-06-08T20:41:58.838Z,60.83
2018-06-08T20:44:34.321Z,67.47
2018-06-08T20:47:13.110Z,68.53
2018-06-08T20:50:10.007Z,68.57
2018-06-08T20:52:48.540Z,71.30
2018-06-08T20:55:32.141Z,68.77
2018-06-08T20:58:26.473Z,66.85
2018-06-08T21:01:12.849Z,70.67
2018-06-08T21:03:51.200Z,74.47
2018-06-08T21:06:30.806Z,73.80
2018-06-08T21:09:12.137Z,66.03
2018-06-08T21:11:50.549Z,65.30
2018-06-08T21:14:28.424Z,68.83
2018-06-08T21:17:04.450Z,79.37
2018-06-08T21:19:42.540Z,77.28
2018-06-08T21:22:23.673Z,65.23
2018-06-08T21:24:58.615Z,63.97
2018-06-08T21:27:51.886Z,79.67
2018-06-08T21:30:39.826Z,74.47
2018-06-08T21:33:18.381Z,73.27
2018-06-08T21:35:55.671Z,74.47
2018-06-08T21:38:31.863Z,73.23
2018-06-08T21:41:16.044Z,69.60
2018-06-08T21:44:01.446Z,70.10
2018-06-08T21:46:35.125Z,78.28
2018-06-08T21:49:11.356Z,64.37
2018-06-08T21:51:54.498Z,71.00
2018-06-08T21:54:28.806Z,70.43
2018-06-08T21:57:04.480Z,74.60
2018-06-08T21:59:37.026Z,78.07
2018-06-08T22:02:11.914Z,91.53
2018-06-08T22:04:46.182Z,100.97
2018-06-08T22:07:21.901Z,89.53
2018-06-08T22:10:02.256Z,77.10
2018-06-08T22:12:40.855Z,75.43
2018-06-08T22:15:16.509Z,90.90
2018-06-08T22:17:51.623Z,85.97
2018-06-08T22:20:26.457Z,79.40
2018-06-08T22:22:59.953Z,79.03
2018-06-08T22:25:33.126Z,69.30
2018-06-08T22:28:06.090Z,99.97
2018-06-08T22:30:39.688Z,89.80
2018-06-08T22:33:15.629Z,93.93
2018-06-08T22:35:50.288Z,117.97
2018-06-08T22:38:27.686Z,138.55
2018-06-08T22:41:10.474Z,121.73
2018-06-08T22:45:13.121Z,138.47
2018-06-08T22:47:47.134Z,166.97
2018-06-08T22:50:21.508Z,131.47
2018-06-08T22:52:57.301Z,114.65
2018-06-08T22:55:30.598Z,120.72
2018-06-08T22:58:06.309Z,126.12
2018-06-08T23:00:39.926Z,119.70
2018-06-08T23:03:14.172Z,142.37
2018-06-08T23:05:49.025Z,136.60
2018-06-08T23:08:25.878Z,124.97
2018-06-08T23:11:00.078Z,93.80
2018-06-08T23:13:34.078Z,155.57
2018-06-08T23:16:10.694Z,136.30
2018-06-08T23:18:44.967Z,125.83
2018-06-08T23:21:19.009Z,145.77
2018-06-08T23:23:54.296Z,150.20
2018-06-08T23:26:28.141Z,157.57
2018-06-08T23:29:03.392Z,157.53
2018-06-08T23:31:36.993Z,169.00
2018-06-08T23:34:09.792Z,120.70
2018-06-08T23:36:46.002Z,109.85
2018-06-08T23:39:20.512Z,134.83
2018-06-08T23:41:54.285Z,136.70
2018-06-08T23:44:28.981Z,164.87
2018-06-08T23:47:03.644Z,134.43
2018-06-08T23:49:36.384Z,107.57
2018-06-08T23:52:12.201Z,122.10
2018-06-08T23:54:45.741Z,208.07
2018-06-08T23:57:19.946Z,195.33
2018-06-08T23:59:57.045Z,175.60
